Latest Coastal Weather Observations for Townsville

IDQ60701

Issued at 9:32 pm EST Wednesday 29 July 2015 (issued every 10 minutes, with the page automatically refreshed every 10 minutes)

About coastal observations | Map of coastal stations | Coastal observations for QLD | Marine services | Other Formats
Station Details ID: 032040 Name: TOWNSVILLE AERO Lat: -19.25 Lon: 146.77 Height: 4.34 m
Data from the previous 72 hours. | See also: Recent months at Townsville
Date/Time
EST
Temp

°C
Wind Pressure Rain
since 9am
mm
Weather Cloud Vis
km
Sea
Height
m
Swell
Dir
 
Speed
knots
Gust
knots
hPa Trend Height
m
Period
s
Dir
29/09:00pm 21.3 ESE 15 19 1023.9 - 0.0 - Mostly cloudy 10 - - - -
29/08:30pm 21.3 ESE 15 19 1023.7 - 0.0 - Partly cloudy 10 - - - -
29/08:00pm 21.4 ESE 16 21 1023.5 - 0.0 - Cloudy 10 - - - -
29/07:30pm 21.6 ESE 15 20 1023.2 - 0.0 - Cloudy 10 - - - -
29/07:00pm 21.8 ESE 16 24 1022.6 - 0.0 - Cloudy 10 - - - -
29/06:30pm 21.8 E 17 23 1022.3 - 0.0 - Partly cloudy 10 - - - -
29/06:00pm 22.1 E 15 23 1021.8 - 0.0 - Mostly cloudy 10 - - - -
29/05:30pm 22.3 E 16 21 1021.5 - 0.0 - Mostly clear 10 - - - -
29/05:24pm 22.4 E 18 28 1021.5 - 0.0 - Mostly clear 10 - - - -
29/05:00pm 22.7 E 20 26 1021.3 - 0.0 - Mostly clear 10 - - - -
29/04:30pm 23.0 E 20 27 1021.0 - 0.0 - Mostly clear 10 - - - -
29/04:00pm 24.0 E 20 27 1021.1 - 0.0 - Mostly clear 10 - - - -
29/03:30pm 24.6 E 19 23 1021.0 - 0.0 - Mostly clear 10 - - - -
29/03:00pm 25.4 ENE 18 22 1020.9 F 0.0 Haze Partly cloudy 20 - - - -
29/02:30pm 24.9 ENE 19 23 1021.1 - 0.0 - Mostly clear 10 - - - -
29/02:00pm 25.5 E 19 23 1021.4 - 0.0 - Mostly clear 10 - - - -
29/01:30pm 24.5 ENE 20 24 1021.7 - 0.0 - Mostly clear 10 - - - -
29/01:00pm 25.5 E 19 26 1022.1 - 0.0 - Partly cloudy 10 - - - -
29/12:30pm 25.5 E 18 24 1022.6 - 0.0 - Partly cloudy 10 - - - -
29/12:06pm 25.5 ESE 15 25 1023.1 - 0.0 - Mostly clear 10 - - - -
29/12:00pm 25.0 SE 16 22 1023.3 F 0.0 Haze Mostly clear 25 - - - -
29/11:30am 24.8 ESE 17 23 1024.1 - 0.0 - Mostly clear 10 - - - -
29/11:00am 24.2 ESE 17 22 1024.4 - 0.0 - Mostly clear 10 - - - -
29/10:37am 24.8 SE 12 21 1024.6 - 0.0 - Mostly clear 10 - - - -
29/10:00am 22.1 SSE 6 8 1024.9 - 0.0 - Mostly clear 10 - - - -
29/09:30am 21.0 SSW 7 9 1025.1 - 0.0 - Mostly clear 10 - - - -
29/09:00am 21.3 S 8 10 1024.8 F 0.0 Fine Mostly cloudy 35 - - - -
29/08:00am 19.7 SSW 6 8 1024.4 - 0.0 - Mostly clear 10 - - - -
29/07:30am 18.3 CALM 0 3 1024.1 - 0.0 - Mostly clear 10 - - - -
29/07:00am 17.1 SSE 6 10 1023.8 - 0.0 - Mostly clear 10 - - - -
29/06:30am 16.8 S 7 8 1023.6 - 0.0 - Mostly clear 10 - - - -
29/06:00am 17.1 S 8 9 1023.5 R 0.0 Fine Mostly clear 35 - - - -
29/05:30am 17.1 SSW 4 5 1023.3 - 0.0 - - 10 - - - -
29/05:00am 16.9 SSW 5 6 1023.0 - 0.0 - - 10 - - - -
29/04:30am 17.0 S 4 5 1023.0 - 0.0 - - 10 - - - -
29/04:00am 17.6 SW 6 8 1022.7 - 0.0 - - 10 - - - -
29/03:30am 17.7 SW 4 6 1022.8 - 0.0 - - 10 - - - -
29/03:00am 19.0 SE 7 9 1022.9 - 0.0 - - 10 - - - -
29/02:30am 19.9 SE 16 20 1023.1 - 0.0 - - 10 - - - -
29/02:00am 19.2 SE 8 11 1023.1 - 0.0 - - 10 - - - -
29/01:30am 18.9 SSE 7 8 1023.2 - 0.0 - - 10 - - - -
29/01:00am 19.7 SE 8 11 1023.5 - 0.0 - - 10 - - - -
29/12:30am 20.2 SE 12 15 1023.7 - 0.0 - - 10 - - - -
 
Date/Time
EST
Temp

°C
Wind Pressure Rain
since 9am
mm
Weather Cloud Vis
km
Sea
Height
m
Swell
Dir
 
Speed
knots
Gust
knots
hPa Trend Height
m
Period
s
Dir
28/11:30pm 20.5 SE 9 14 1023.7 - 0.0 - - 10 - - - -
28/11:00pm 21.1 ESE 14 20 1023.8 - 0.0 - Cloudy 10 - - - -
28/10:30pm 21.5 ESE 9 11 1023.8 - 0.0 - Partly cloudy 10 - - - -
28/10:00pm 21.6 ESE 13 18 1023.8 - 0.0 - Cloudy 10 - - - -
28/09:30pm 21.9 SE 11 15 1023.8 - 0.0 - Partly cloudy 10 - - - -
28/09:00pm 22.2 ESE 13 17 1023.8 - 0.0 - Cloudy 10 - - - -
28/08:30pm 22.2 ESE 12 17 1023.5 - 0.0 - Cloudy 10 - - - -
28/08:00pm 22.4 ESE 14 18 1023.3 - 0.0 - Cloudy 10 - - - -
28/07:30pm 22.3 ESE 12 17 1023.0 - 0.0 - Cloudy 10 - - - -
28/07:00pm 22.5 ESE 10 14 1022.8 - 0.0 - Cloudy 10 - - - -
28/06:30pm 22.5 E 12 17 1022.3 - 0.0 - Partly cloudy 10 - - - -
28/06:00pm 22.5 E 13 17 1022.1 - 0.0 - - 10 - - - -
28/05:30pm 23.3 E 11 15 1021.8 - 0.0 - Mostly clear 10 - - - -
28/05:00pm 24.0 ENE 15 18 1021.3 - 0.0 - Mostly clear 10 - - - -
28/04:30pm 24.9 ENE 16 19 1021.0 - 0.0 - Mostly clear 10 - - - -
28/04:00pm 25.0 ENE 15 18 1020.8 - 0.0 - Mostly clear 10 - - - -
28/03:30pm 26.1 E 11 17 1020.6 - 0.0 - Mostly clear 10 - - - -
28/03:00pm 25.3 SE 8 15 1020.8 R 0.0 Haze Mostly cloudy 25 - - - -
28/02:30pm 25.9 ESE 12 17 1020.9 - 0.0 - Partly cloudy 10 - - - -
28/02:00pm 26.5 E 16 20 1021.0 - 0.0 - Partly cloudy 10 - - - -
28/01:30pm 27.0 E 14 20 1021.3 - 0.0 - Partly cloudy 10 - - - -
28/01:00pm 26.9 ESE 13 18 1021.6 - 0.0 - Partly cloudy 10 - - - -
28/12:30pm 25.8 ESE 13 19 1022.1 - 0.0 - Mostly clear 10 - - - -
28/12:00pm 25.0 ESE 16 19 1022.6 R 0.0 Haze Mostly cloudy 25 - - - -
28/11:30am 25.1 SE 13 16 1022.8 - 0.0 - Partly cloudy 10 - - - -
28/11:00am 25.4 SE 13 16 1023.1 - 0.0 - Partly cloudy 10 - - - -
28/10:30am 25.2 SSE 12 17 1023.4 - 0.0 - Mostly clear 10 - - - -
28/10:00am 24.9 SE 13 19 1023.5 - 0.0 - Mostly clear 10 - - - -
28/09:30am 24.5 SE 13 16 1023.5 - 0.0 - Mostly clear 10 - - - -
28/09:00am 23.8 SE 11 14 1023.3 R 0.0 Haze Mostly cloudy 30 - - - -
28/08:30am 23.7 SE 9 13 1023.0 - 0.0 - Mostly clear 10 - - - -
28/08:00am 22.6 SE 9 12 1022.8 - 0.0 - Mostly clear 10 - - - -
28/07:30am 22.3 S 5 7 1022.5 - 0.0 - Mostly clear 10 - - - -
28/07:00am 21.6 SSE 6 8 1022.2 - 0.0 - Mostly clear 10 - - - -
28/06:30am 21.5 ESE 7 10 1021.8 - 0.0 - Mostly clear 10 - - - -
28/06:00am 21.9 ESE 7 9 1021.5 F 0.0 Fine Partly cloudy 30 - - - -
28/05:30am 22.0 SE 6 8 1021.5 - 0.0 - Partly cloudy 10 - - - -
28/05:00am 22.1 SE 6 8 1021.5 - 0.0 - Partly cloudy 10 - - - -
28/04:30am 22.0 SE 7 10 1021.5 - 0.0 - Cloudy 10 - - - -
28/04:00am 22.0 SE 8 11 1021.6 - 0.0 - Cloudy 10 - - - -
28/03:30am 22.0 SE 8 11 1021.6 - 0.0 - Cloudy 10 - - - -
28/03:00am 22.0 ESE 7 9 1021.7 - 0.0 - Cloudy 10 - - - -
28/02:30am 22.1 SE 8 12 1021.7 - 0.0 - Partly cloudy 10 - - - -
28/02:00am 22.1 ESE 6 8 1021.7 - 0.0 - Partly cloudy 10 - - - -
28/01:30am 22.2 ESE 5 7 1021.9 - 0.0 - Partly cloudy 10 - - - -
28/01:00am 21.8 SE 5 6 1022.2 - 0.0 - Partly cloudy 10 - - - -
28/12:30am 20.4 CALM 0 0 1022.2 - 0.0 - Partly cloudy 10 - - - -
28/12:00am 20.1 CALM 0 0 1022.3 - 0.0 - Cloudy 10 - - - -
 
Date/Time
EST
Temp

°C
Wind Pressure Rain
since 9am
mm
Weather Cloud Vis
km
Sea
Height
m
Swell
Dir
 
Speed
knots
Gust
knots
hPa Trend Height
m
Period
s
Dir
27/11:30pm 20.8 CALM 0 0 1022.4 - 0.0 - Partly cloudy 10 - - - -
27/11:00pm 21.7 SSE 2 4 1022.6 - 0.0 - Partly cloudy 10 - - - -
27/10:30pm 21.5 SSE 4 5 1022.7 - 0.0 - Partly cloudy 10 - - - -
27/10:00pm 21.8 SE 5 6 1022.6 - 0.0 - Partly cloudy 10 - - - -
27/09:30pm 21.7 CALM 0 0 1022.4 - 0.0 - Partly cloudy 10 - - - -
27/09:00pm 21.9 ENE 4 5 1022.5 - 0.0 - - 10 - - - -
27/08:30pm 21.8 ENE 5 6 1022.3 - 0.0 - - 10 - - - -
27/08:00pm 22.0 ENE 5 6 1022.1 - 0.0 - - 10 - - - -
27/07:30pm 22.4 ENE 7 8 1021.6 - 0.0 - - 10 - - - -
27/07:00pm 22.7 ENE 10 12 1021.3 - 0.0 - - 10 - - - -
27/06:30pm 22.8 ENE 10 13 1020.9 - 0.0 - - 10 - - - -
27/06:00pm 23.1 ENE 9 13 1020.3 - 0.0 - - 10 - - - -
27/05:30pm 23.6 ENE 9 12 1020.0 - 0.0 - Mostly clear 10 - - - -
27/05:00pm 24.0 ENE 12 15 1019.6 - 0.0 - Mostly clear 10 - - - -
27/04:30pm 24.2 ENE 12 15 1019.1 - 0.0 - Mostly clear 10 - - - -
27/04:00pm 24.7 ENE 14 17 1018.9 - 0.0 - Mostly clear 10 - - - -
27/03:30pm 25.0 ENE 15 18 1018.6 - 0.0 - Mostly clear 10 - - - -
27/03:00pm 26.0 ENE 15 18 1018.6 S 0.0 Haze Mostly clear 25 - - - -
27/02:30pm 26.1 ENE 14 16 1018.7 - 0.0 - Mostly clear 10 - - - -
27/02:00pm 26.3 ENE 15 17 1019.0 - 0.0 - Mostly clear 10 - - - -
27/01:30pm 26.1 ENE 15 17 1019.3 - 0.0 - Mostly clear 10 - - - -
27/01:00pm 26.1 ENE 14 16 1019.8 - 0.0 - Mostly clear 10 - - - -
27/12:30pm 26.7 ENE 11 15 1020.4 - 0.0 - Mostly clear 10 - - - -
27/12:00pm 26.3 ENE 10 12 1020.9 F 0.0 Haze Mostly clear 30 - - - -
27/11:30am 26.4 NE 9 11 1021.5 - 0.0 - Mostly clear 10 - - - -
27/11:00am 25.9 NNE 10 13 1021.9 - 0.0 - Mostly clear 10 - - - -
27/10:30am 25.6 WSW 5 7 1022.3 - 0.0 - Mostly clear 10 - - - -
27/10:00am 24.4 SW 4 7 1022.7 - 0.0 - Partly cloudy 10 - - - -
27/09:30am 23.8 SW 7 8 1022.8 - 0.0 - Mostly clear 10 - - - -
27/09:00am 24.3 SSW 5 7 1022.6 F 0.0 Haze Partly cloudy 20 - - - -
27/08:30am 23.0 S 4 5 1022.5 - 0.0 - Mostly clear 10 - - - -
27/08:00am 21.5 CALM 0 0 1022.3 - 0.0 - Mostly clear 10 - - - -
27/07:30am 20.5 SSE 3 5 1022.1 - 0.0 - Mostly clear 10 - - - -
27/07:00am 19.8 SSE 5 6 1021.7 - 0.0 - Mostly clear 9 - - - -
27/06:36am 19.8 SSW 5 7 1021.6 - 0.0 - Mostly clear 9 - - - -
27/06:30am 19.7 SSW 6 7 1021.6 - 0.0 Shallow fog Mostly clear 9 - - - -
27/06:00am 19.8 SSE 6 7 1021.3 S 0.0 Fog patches Mostly cloudy 9 - - - -
27/05:44am 19.2 SE 2 4 1020.9 - 0.0 - - 8 - - - -
27/05:30am 18.6 CALM 0 0 1020.7 - 0.0 - - 2 - - - -
27/05:27am 18.8 CALM 0 0 1020.7 - 0.0 - - 1 - - - -
27/05:18am 19.1 CALM 0 0 1020.6 - 0.0 - - 0.9 - - - -
27/05:03am 19.2 CALM 0 0 1020.5 - 0.0 - - 1 - - - -
27/05:00am 19.3 CALM 0 0 1020.5 - 0.0 - - 0.8 - - - -
27/04:56am 19.2 CALM 0 0 1020.5 - 0.0 - - 0.9 - - - -
27/04:50am 19.3 CALM 0 0 1020.5 - 0.0 - - 5 - - - -
27/04:30am 19.5 CALM 0 0 1020.5 - 0.0 - - 3 - - - -
27/04:07am 19.7 CALM 0 0 1020.5 - 0.0 - Partly cloudy 0.9 - - - -
27/04:00am 19.6 CALM 0 0 1020.5 - 0.0 - Partly cloudy 2 - - - -
27/03:38am 18.5 SE 3 4 1020.7 - 0.0 - - 6 - - - -
27/03:30am 19.9 SE 4 4 1020.7 - 0.0 - - 10 - - - -
27/03:00am 20.6 SE 5 6 1020.9 - 0.0 - Mostly clear 10 - - - -
27/02:30am 20.8 ESE 3 4 1021.1 - 0.0 - Partly cloudy 10 - - - -
27/02:08am 20.6 ESE 4 5 1021.1 - 0.0 - Partly cloudy 10 - - - -
27/02:00am 20.5 ESE 4 5 1021.2 - 0.0 - Partly cloudy 10 - - - -
27/01:44am 19.9 ESE 1 4 1021.2 - 0.0 - Partly cloudy 10 - - - -
27/01:30am 19.9 CALM 0 0 1021.2 - 0.0 - Partly cloudy 10 - - - -
27/01:00am 19.5 CALM 0 0 1021.6 - 0.0 - Partly cloudy 7 - - - -
27/12:34am 18.9 CALM 0 0 1021.6 - 0.0 - Cloudy 10 - - - -
27/12:30am 18.8 CALM 0 0 1021.6 - 0.0 - Partly cloudy 9 - - - -
27/12:19am 19.2 CALM 0 0 1021.7 - 0.0 - Partly cloudy 5 - - - -
27/12:08am 19.3 CALM 0 0 1021.8 - 0.0 - Partly cloudy 5 - - - -
27/12:00am 18.9 CALM 0 0 1021.8 - 0.0 - Mostly clear 10 - - - -
 
Date/Time
EST
Temp

°C
Wind Pressure Rain
since 9am
mm
Weather Cloud Vis
km
Sea
Height
m
Swell
Dir
 
Speed
knots
Gust
knots
hPa Trend Height
m
Period
s
Dir
26/11:30pm 20.4 CALM 0 0 1022.0 - 0.0 - - 10 - - - -
26/11:18pm 20.8 CALM 0 0 1022.1 - 0.0 - Partly cloudy 10 - - - -
26/11:00pm 21.2 CALM 0 0 1022.1 - 0.0 - Partly cloudy 10 - - - -
26/10:36pm 20.9 CALM 0 0 1022.2 - 0.0 - Partly cloudy 10 - - - -
26/10:30pm 21.0 CALM 0 0 1022.2 - 0.0 - Partly cloudy 10 - - - -
26/10:00pm 21.4 CALM 0 3 1022.3 - 0.0 - - 10 - - - -

Other Formats:

Comma delimited format used in spreadsheet applications
http://www.bom.gov.au/fwo/IDQ60701/IDQ60701.94294.axf

JavaScript Object Notation format (JSON) in row-major order
http://www.bom.gov.au/fwo/IDQ60701/IDQ60701.94294.json